createdAt,value
2017-05-19T00:00:20.258Z,14.40
2017-05-19T00:02:50.149Z,14.30
2017-05-19T00:05:19.356Z,14.30
2017-05-19T00:07:48.563Z,14.30
2017-05-19T00:10:17.788Z,14.30
2017-05-19T00:12:46.975Z,14.30
2017-05-19T00:15:16.184Z,14.30
2017-05-19T00:17:45.381Z,14.30
2017-05-19T00:20:14.611Z,14.40
2017-05-19T00:22:44.561Z,14.30
2017-05-19T00:25:14.468Z,14.30
2017-05-19T00:27:43.662Z,14.30
2017-05-19T00:30:14.298Z,14.40
2017-05-19T00:32:43.504Z,14.50
2017-05-19T00:35:12.730Z,14.50
2017-05-19T00:37:41.911Z,14.60
2017-05-19T00:40:11.111Z,14.60
2017-05-19T00:42:40.307Z,14.60
2017-05-19T00:45:09.528Z,14.60
2017-05-19T00:47:38.723Z,14.50
2017-05-19T00:50:07.934Z,14.50
2017-05-19T00:52:37.132Z,14.50
2017-05-19T00:55:06.328Z,14.50
2017-05-19T00:57:35.551Z,14.60
2017-05-19T01:00:04.769Z,14.60
2017-05-19T01:02:34.824Z,14.50
2017-05-19T01:05:04.011Z,14.50
2017-05-19T01:07:33.222Z,14.50
2017-05-19T01:10:02.468Z,14.50
2017-05-19T01:12:31.675Z,14.50
2017-05-19T01:15:01.631Z,14.40
2017-05-19T01:17:30.839Z,14.60
2017-05-19T01:20:00.038Z,14.60
2017-05-19T01:22:29.335Z,14.60
2017-05-19T01:24:58.528Z,14.70
2017-05-19T01:27:27.782Z,14.70
2017-05-19T01:29:56.993Z,14.60
2017-05-19T01:32:26.956Z,14.50
2017-05-19T01:34:55.799Z,14.50
2017-05-19T01:37:25.739Z,14.40
2017-05-19T01:39:54.953Z,14.50
2017-05-19T01:42:25.580Z,14.60
2017-05-19T01:44:54.799Z,14.80
2017-05-19T01:47:23.996Z,14.90
2017-05-19T01:49:52.856Z,14.90
2017-05-19T01:52:22.063Z,15.00
2017-05-19T01:54:51.255Z,14.90
2017-05-19T01:57:21.151Z,14.80
2017-05-19T01:59:51.107Z,14.70
2017-05-19T02:02:20.331Z,14.70
2017-05-19T02:04:49.519Z,14.70
2017-05-19T02:07:18.731Z,14.70
2017-05-19T02:09:47.932Z,14.70
2017-05-19T02:12:17.150Z,14.70
2017-05-19T02:14:46.347Z,14.80
2017-05-19T02:17:15.543Z,14.90
2017-05-19T02:19:44.756Z,15.00
2017-05-19T02:22:13.954Z,15.10
2017-05-19T02:24:43.173Z,15.10
2017-05-19T02:27:13.112Z,15.00
2017-05-19T02:29:42.330Z,15.00
2017-05-19T02:32:11.518Z,15.00
2017-05-19T02:34:40.722Z,15.00
2017-05-19T02:37:10.124Z,15.00
2017-05-19T02:39:39.311Z,15.00
2017-05-19T02:42:08.527Z,15.10
2017-05-19T02:44:37.720Z,15.10
2017-05-19T02:47:06.920Z,15.10
2017-05-19T02:49:36.123Z,15.20
2017-05-19T02:52:05.326Z,15.10
2017-05-19T02:54:34.531Z,15.00
2017-05-19T02:57:03.722Z,14.90
2017-05-19T02:59:32.943Z,14.90
2017-05-19T03:05:06.938Z,14.90
2017-05-19T03:07:36.131Z,14.80
2017-05-19T03:10:05.356Z,14.90
2017-05-19T03:12:34.567Z,15.00
2017-05-19T03:15:03.771Z,15.00
2017-05-19T03:17:33.015Z,15.00
2017-05-19T03:20:02.240Z,15.00
2017-05-19T03:22:31.516Z,15.00
2017-05-19T03:25:00.731Z,15.00
2017-05-19T03:27:30.017Z,15.00
2017-05-19T03:29:59.162Z,15.00
2017-05-19T03:32:28.356Z,15.00
2017-05-19T03:34:57.624Z,14.90
2017-05-19T03:37:26.828Z,14.90
2017-05-19T03:39:56.031Z,14.90
2017-05-19T03:42:25.249Z,15.00
2017-05-19T03:44:54.448Z,15.00
2017-05-19T03:47:23.656Z,15.00
2017-05-19T03:49:52.890Z,15.00
2017-05-19T03:52:22.087Z,15.10
2017-05-19T03:54:51.287Z,15.10
2017-05-19T03:57:20.507Z,15.10
2017-05-19T03:59:49.704Z,15.10
2017-05-19T04:02:18.899Z,15.10
2017-05-19T04:04:48.111Z,15.10
2017-05-19T04:07:17.308Z,15.20
2017-05-19T04:09:46.512Z,15.10
2017-05-19T04:12:15.735Z,15.10
2017-05-19T04:14:44.939Z,15.10
2017-05-19T04:17:14.145Z,15.10
2017-05-19T04:19:43.372Z,15.00
2017-05-19T04:22:12.588Z,15.00
2017-05-19T04:24:41.787Z,15.00
2017-05-19T04:27:11.012Z,15.00
2017-05-19T04:29:40.216Z,15.10
2017-05-19T04:32:09.421Z,15.20
2017-05-19T04:34:38.771Z,15.20
2017-05-19T04:37:07.972Z,15.40
2017-05-19T04:39:37.177Z,15.50
2017-05-19T04:42:06.392Z,15.70
2017-05-19T04:44:35.595Z,15.80
2017-05-19T04:47:04.797Z,15.70
2017-05-19T04:49:34.259Z,15.70
2017-05-19T04:52:03.996Z,15.80
2017-05-19T04:54:33.204Z,15.80
2017-05-19T04:57:03.119Z,15.80
2017-05-19T04:59:32.326Z,15.90
2017-05-19T05:02:01.536Z,15.90
2017-05-19T05:04:30.759Z,16.00
2017-05-19T05:06:59.960Z,16.00
2017-05-19T05:09:29.184Z,15.90
2017-05-19T05:11:58.397Z,16.00
2017-05-19T05:14:27.600Z,15.90
2017-05-19T05:16:56.816Z,16.00
2017-05-19T05:19:26.052Z,16.00
2017-05-19T05:21:55.388Z,16.00
2017-05-19T05:24:24.661Z,16.10
2017-05-19T05:26:53.876Z,16.00
2017-05-19T05:29:23.092Z,16.10
2017-05-19T05:31:52.362Z,16.20
2017-05-19T05:34:21.581Z,16.20
2017-05-19T05:36:50.791Z,16.40
2017-05-19T05:39:20.016Z,16.40
2017-05-19T05:41:49.232Z,16.40
2017-05-19T05:44:18.250Z,16.80
2017-05-19T05:46:48.142Z,17.00
2017-05-19T05:49:17.380Z,17.10
2017-05-19T05:51:46.600Z,17.20
2017-05-19T05:54:15.811Z,17.30
2017-05-19T05:56:45.043Z,17.30
2017-05-19T05:59:14.244Z,17.40
2017-05-19T06:01:43.463Z,17.40
2017-05-19T06:04:12.679Z,17.50
2017-05-19T06:06:41.888Z,17.50
2017-05-19T06:09:11.301Z,17.50
2017-05-19T06:11:40.515Z,17.30
2017-05-19T06:14:09.746Z,17.30
2017-05-19T06:16:38.963Z,17.50
2017-05-19T06:19:08.192Z,17.40
2017-05-19T06:21:37.443Z,17.80
2017-05-19T06:24:06.662Z,17.80
2017-05-19T06:26:35.883Z,17.90
2017-05-19T06:29:05.093Z,17.70
2017-05-19T06:31:34.299Z,17.70
2017-05-19T06:34:03.591Z,17.70
2017-05-19T06:36:32.799Z,17.80
2017-05-19T06:39:02.028Z,17.80
2017-05-19T06:41:31.254Z,17.80
2017-05-19T06:44:00.451Z,17.70
2017-05-19T06:46:29.657Z,17.60
2017-05-19T06:48:59.728Z,17.30
2017-05-19T06:51:28.951Z,17.30
2017-05-19T06:53:58.152Z,17.10
2017-05-19T06:56:27.389Z,17.00
2017-05-19T06:58:56.587Z,16.80
2017-05-19T07:01:25.791Z,16.70
2017-05-19T07:03:55.020Z,16.70
2017-05-19T07:06:24.224Z,16.70
2017-05-19T07:08:53.488Z,16.80
2017-05-19T07:11:22.917Z,16.80
2017-05-19T07:13:52.160Z,16.70
2017-05-19T07:16:21.375Z,16.70
2017-05-19T07:18:50.619Z,16.80
2017-05-19T07:21:19.958Z,17.00
2017-05-19T07:23:49.191Z,17.00
2017-05-19T07:26:18.421Z,17.10
2017-05-19T07:28:47.618Z,17.10
2017-05-19T07:31:16.875Z,17.10
2017-05-19T07:33:46.071Z,17.40
2017-05-19T07:36:15.280Z,17.50
2017-05-19T07:38:44.503Z,17.50
2017-05-19T07:41:13.716Z,17.50
2017-05-19T07:43:42.930Z,17.60
2017-05-19T07:46:12.201Z,17.70
2017-05-19T07:48:40.698Z,17.70
2017-05-19T07:51:09.934Z,17.60
2017-05-19T07:53:39.854Z,17.40
2017-05-19T07:56:09.068Z,17.40
2017-05-19T07:58:38.290Z,17.20
2017-05-19T08:01:07.524Z,17.10
2017-05-19T08:03:36.729Z,17.10
2017-05-19T08:06:05.942Z,16.80
2017-05-19T08:08:35.307Z,16.70
2017-05-19T08:11:04.522Z,16.60
2017-05-19T08:13:33.795Z,16.10
2017-05-19T08:16:03.019Z,15.80
2017-05-19T08:18:32.334Z,15.40
2017-05-19T08:21:01.541Z,15.10
2017-05-19T08:23:30.783Z,14.80
2017-05-19T08:26:00.088Z,14.80
2017-05-19T08:28:28.395Z,14.70
2017-05-19T08:30:57.612Z,14.60
2017-05-19T08:33:26.827Z,14.30
2017-05-19T08:35:56.067Z,14.20
2017-05-19T08:38:26.097Z,14.20
2017-05-19T08:40:54.569Z,14.20
2017-05-19T08:43:23.854Z,14.20
2017-05-19T08:45:53.123Z,14.00
2017-05-19T08:48:22.265Z,13.90
2017-05-19T08:50:51.483Z,13.80
2017-05-19T08:53:20.721Z,13.80
2017-05-19T08:55:49.926Z,13.90
2017-05-19T08:58:19.137Z,14.00
2017-05-19T09:00:48.360Z,14.10
2017-05-19T09:03:17.568Z,14.10
2017-05-19T09:05:46.816Z,14.10
2017-05-19T09:08:16.027Z,14.10
2017-05-19T09:10:45.219Z,13.90
2017-05-19T09:13:14.432Z,13.90
2017-05-19T09:15:43.699Z,14.00
2017-05-19T09:18:12.909Z,13.90
2017-05-19T09:20:42.133Z,13.90
2017-05-19T09:23:12.084Z,13.90
2017-05-19T09:25:41.329Z,14.00
2017-05-19T09:28:10.528Z,13.90
2017-05-19T09:30:39.744Z,13.70
2017-05-19T09:33:09.641Z,13.70
2017-05-19T09:35:38.867Z,13.50
2017-05-19T09:38:08.063Z,13.40
2017-05-19T09:40:36.491Z,13.40
2017-05-19T09:43:05.705Z,13.60
2017-05-19T09:45:34.902Z,13.40
2017-05-19T09:48:04.097Z,13.00
2017-05-19T09:50:32.637Z,12.90
2017-05-19T09:53:01.852Z,12.10
2017-05-19T09:55:31.220Z,12.00
2017-05-19T09:58:00.499Z,12.20
2017-05-19T10:00:29.715Z,12.20
2017-05-19T10:02:58.932Z,12.20
2017-05-19T10:05:28.163Z,12.20
2017-05-19T10:07:57.375Z,12.30
2017-05-19T10:10:26.619Z,12.40
2017-05-19T10:12:55.911Z,12.40
2017-05-19T10:15:25.177Z,12.40
2017-05-19T10:17:54.380Z,12.30
2017-05-19T10:20:23.614Z,12.30
2017-05-19T10:22:52.813Z,12.50
2017-05-19T10:25:22.023Z,12.90
2017-05-19T10:27:51.252Z,12.90
2017-05-19T10:30:20.447Z,12.90
2017-05-19T10:32:49.656Z,12.80
2017-05-19T10:35:18.868Z,12.80
2017-05-19T10:37:48.187Z,12.70
2017-05-19T10:40:17.397Z,12.50
2017-05-19T10:42:46.626Z,12.40
2017-05-19T10:45:15.821Z,12.40
2017-05-19T10:47:45.032Z,12.30
2017-05-19T10:50:14.315Z,12.30
2017-05-19T10:52:43.570Z,12.30
2017-05-19T10:55:12.015Z,12.30
2017-05-19T10:57:40.649Z,12.30
2017-05-19T11:00:09.160Z,12.00
2017-05-19T11:02:38.368Z,12.00
2017-05-19T11:05:07.591Z,11.80
2017-05-19T11:07:36.816Z,11.80
2017-05-19T11:10:06.045Z,11.80
2017-05-19T11:12:35.260Z,11.80
2017-05-19T11:15:04.524Z,11.90
2017-05-19T11:17:33.737Z,11.90
2017-05-19T11:20:03.648Z,11.80
2017-05-19T11:22:32.963Z,11.90
2017-05-19T11:25:02.167Z,11.80
2017-05-19T11:27:31.433Z,11.70
2017-05-19T11:30:01.315Z,11.70
2017-05-19T11:32:30.783Z,11.60
2017-05-19T11:34:59.993Z,11.60
2017-05-19T11:37:29.203Z,11.60
2017-05-19T11:39:58.436Z,11.70
2017-05-19T11:42:27.644Z,11.70
2017-05-19T11:44:56.951Z,11.70
2017-05-19T11:47:26.227Z,11.60
2017-05-19T11:49:55.511Z,11.60
2017-05-19T11:52:24.727Z,11.40
2017-05-19T11:54:53.986Z,11.50
2017-05-19T11:57:23.199Z,11.50
2017-05-19T11:59:53.172Z,11.30
2017-05-19T12:02:22.388Z,11.10
2017-05-19T12:04:51.596Z,11.10
2017-05-19T12:07:21.615Z,11.00
2017-05-19T12:09:58.063Z,11.00
2017-05-19T12:12:27.479Z,11.00
2017-05-19T12:14:56.695Z,11.10
2017-05-19T12:17:25.952Z,11.00
2017-05-19T12:19:55.177Z,11.00
2017-05-19T12:22:24.388Z,11.00
2017-05-19T12:24:53.680Z,11.10
2017-05-19T12:27:22.895Z,11.10
2017-05-19T12:29:52.112Z,11.30
2017-05-19T12:32:21.325Z,11.40
2017-05-19T12:34:50.536Z,11.50
2017-05-19T12:37:19.760Z,11.50
2017-05-19T12:39:48.960Z,11.40
2017-05-19T12:42:18.192Z,11.30
2017-05-19T12:44:47.396Z,11.30
2017-05-19T12:47:16.617Z,11.30
2017-05-19T12:49:45.815Z,11.30
2017-05-19T12:52:15.036Z,11.30
2017-05-19T12:54:44.288Z,11.50
2017-05-19T12:57:13.491Z,11.60
2017-05-19T12:59:42.689Z,11.50
2017-05-19T13:02:11.915Z,11.60
2017-05-19T13:04:41.141Z,11.50
2017-05-19T13:07:10.528Z,11.20
2017-05-19T13:09:39.734Z,11.10
2017-05-19T13:12:08.951Z,11.00
2017-05-19T13:14:38.247Z,10.80
2017-05-19T13:17:07.466Z,10.80
2017-05-19T13:19:36.769Z,10.70
2017-05-19T13:22:06.678Z,10.60
2017-05-19T13:24:36.014Z,10.60
2017-05-19T13:27:05.223Z,10.70
2017-05-19T13:29:34.434Z,10.70
2017-05-19T13:32:04.285Z,10.70
2017-05-19T13:34:33.624Z,10.70
2017-05-19T13:37:02.776Z,10.70
2017-05-19T13:39:31.999Z,10.70
2017-05-19T13:42:01.201Z,10.80
2017-05-19T13:44:30.427Z,10.70
2017-05-19T13:46:59.628Z,10.80
2017-05-19T13:49:28.852Z,10.80
2017-05-19T13:51:58.087Z,10.90
2017-05-19T13:54:27.310Z,10.90
2017-05-19T13:56:56.511Z,11.00
2017-05-19T13:59:25.739Z,11.00
2017-05-19T14:01:55.019Z,11.00
2017-05-19T14:04:24.243Z,10.80
2017-05-19T14:06:53.459Z,10.80
2017-05-19T14:09:22.675Z,10.70
2017-05-19T14:11:51.924Z,10.70
2017-05-19T14:14:21.147Z,10.80
2017-05-19T14:16:51.028Z,10.90
2017-05-19T14:19:20.353Z,10.90
2017-05-19T14:21:49.576Z,11.00
2017-05-19T14:24:18.945Z,11.10
2017-05-19T14:26:48.167Z,11.10
2017-05-19T14:29:17.386Z,11.00
2017-05-19T14:31:46.603Z,11.00
2017-05-19T14:34:15.830Z,11.10
2017-05-19T14:36:45.060Z,11.20
2017-05-19T14:39:14.306Z,11.30
2017-05-19T14:41:44.213Z,11.40
2017-05-19T14:44:13.454Z,11.30
2017-05-19T14:46:42.770Z,11.20
2017-05-19T14:49:12.004Z,11.20
2017-05-19T14:51:41.924Z,11.00
2017-05-19T14:54:11.849Z,10.90
2017-05-19T14:56:41.078Z,10.90
2017-05-19T14:59:10.283Z,10.80
2017-05-19T15:01:39.500Z,10.90
2017-05-19T15:04:08.731Z,10.80
2017-05-19T15:06:37.944Z,10.90
2017-05-19T15:09:07.156Z,10.80
2017-05-19T15:11:36.396Z,10.90
2017-05-19T15:14:05.608Z,11.00
2017-05-19T15:16:34.825Z,11.10
2017-05-19T15:19:04.972Z,11.00
2017-05-19T15:21:34.195Z,10.90
2017-05-19T15:24:03.439Z,11.00
2017-05-19T15:26:32.679Z,10.80
2017-05-19T15:29:01.890Z,10.70
2017-05-19T15:31:31.096Z,10.60
2017-05-19T15:34:00.335Z,10.40
2017-05-19T15:36:29.543Z,10.20
2017-05-19T15:38:58.815Z,10.10
2017-05-19T15:41:28.033Z,10.00
2017-05-19T15:43:57.236Z,10.00
2017-05-19T15:46:26.481Z,9.90
2017-05-19T15:48:55.715Z,9.90
2017-05-19T15:51:24.927Z,9.90
2017-05-19T15:53:54.132Z,9.90
2017-05-19T15:56:23.353Z,9.90
2017-05-19T15:58:52.603Z,9.90
2017-05-19T16:01:21.771Z,9.90
2017-05-19T16:03:51.016Z,10.00
2017-05-19T16:06:20.236Z,9.90
2017-05-19T16:08:49.448Z,9.90
2017-05-19T16:11:18.680Z,10.00
2017-05-19T16:13:47.915Z,10.00
2017-05-19T16:16:17.157Z,10.10
2017-05-19T16:18:46.356Z,10.20
2017-05-19T16:21:15.557Z,10.10
2017-05-19T16:23:44.772Z,10.10
2017-05-19T16:26:13.970Z,10.30
2017-05-19T16:28:43.193Z,10.30
2017-05-19T16:31:12.426Z,10.40
2017-05-19T16:33:41.641Z,10.40
2017-05-19T16:36:10.872Z,10.40
2017-05-19T16:38:40.107Z,10.40
2017-05-19T16:41:09.306Z,10.40
2017-05-19T16:43:38.852Z,10.40
2017-05-19T16:46:08.069Z,10.40
2017-05-19T16:48:37.298Z,10.30
2017-05-19T16:51:06.500Z,10.20
2017-05-19T16:53:35.723Z,10.20
2017-05-19T16:56:04.934Z,10.20
2017-05-19T16:58:34.898Z,10.10
2017-05-19T17:01:04.131Z,10.10
2017-05-19T17:03:33.351Z,10.00
2017-05-19T17:06:02.577Z,9.80
2017-05-19T17:08:31.800Z,9.80
2017-05-19T17:11:00.991Z,9.60
2017-05-19T17:13:30.220Z,9.70
2017-05-19T17:15:59.424Z,9.80
2017-05-19T17:18:28.703Z,9.80
2017-05-19T17:20:57.915Z,9.70
2017-05-19T17:23:27.127Z,9.80
2017-05-19T17:25:56.371Z,9.80
2017-05-19T17:28:25.567Z,10.00
2017-05-19T17:30:54.793Z,10.20
2017-05-19T17:33:24.023Z,10.30
2017-05-19T17:35:53.332Z,10.40
2017-05-19T17:38:22.531Z,10.40
2017-05-19T17:40:51.768Z,10.50
2017-05-19T17:43:20.996Z,10.40
2017-05-19T17:45:50.319Z,10.30
2017-05-19T17:48:19.564Z,10.40
2017-05-19T17:50:48.788Z,10.30
2017-05-19T17:53:18.066Z,10.30
2017-05-19T17:55:47.267Z,10.40
2017-05-19T17:58:16.508Z,10.40
2017-05-19T18:00:45.743Z,10.40
2017-05-19T18:03:15.661Z,10.40
2017-05-19T18:05:44.907Z,10.20
2017-05-19T18:08:14.120Z,10.20
2017-05-19T18:10:43.359Z,10.10
2017-05-19T18:13:12.653Z,10.10
2017-05-19T18:15:41.868Z,10.10
2017-05-19T18:18:11.085Z,10.00
2017-05-19T18:20:40.320Z,10.00
2017-05-19T18:23:09.623Z,9.90
2017-05-19T18:25:38.939Z,9.90
2017-05-19T18:28:08.137Z,9.90
2017-05-19T18:30:37.371Z,9.80
2017-05-19T18:33:06.592Z,9.80
2017-05-19T18:35:35.813Z,9.70
2017-05-19T18:38:05.050Z,9.70
2017-05-19T18:40:34.262Z,9.60
2017-05-19T18:43:03.493Z,9.50
2017-05-19T18:45:32.711Z,9.40
2017-05-19T18:48:01.924Z,9.30
2017-05-19T18:50:31.126Z,9.20
2017-05-19T18:53:00.344Z,9.20
2017-05-19T18:55:29.560Z,9.10
2017-05-19T18:57:58.767Z,9.00
2017-05-19T19:00:27.988Z,9.10
2017-05-19T19:02:57.225Z,9.00
2017-05-19T19:05:27.176Z,8.90
2017-05-19T19:07:56.445Z,8.90
2017-05-19T19:10:25.674Z,8.90
2017-05-19T19:12:54.892Z,8.80
2017-05-19T19:15:24.128Z,8.80
2017-05-19T19:17:53.463Z,8.70
2017-05-19T19:20:22.703Z,8.70
2017-05-19T19:22:51.896Z,8.70
2017-05-19T19:25:21.118Z,8.70
2017-05-19T19:27:50.368Z,8.70
2017-05-19T19:30:19.588Z,8.70
2017-05-19T19:32:48.819Z,8.80
2017-05-19T19:35:18.037Z,8.80
2017-05-19T19:37:47.261Z,8.70
2017-05-19T19:40:16.483Z,8.80
2017-05-19T19:42:45.717Z,8.80
2017-05-19T19:45:14.962Z,8.80
2017-05-19T19:47:44.257Z,8.70
2017-05-19T19:50:13.495Z,8.70
2017-05-19T19:52:42.704Z,8.70
2017-05-19T19:55:11.939Z,8.70
2017-05-19T19:57:41.170Z,8.60
2017-05-19T20:00:10.372Z,8.60
2017-05-19T20:02:39.614Z,8.60
2017-05-19T20:05:08.832Z,8.50
2017-05-19T20:07:38.055Z,8.40
2017-05-19T20:10:07.271Z,8.40
2017-05-19T20:12:36.542Z,8.40
2017-05-19T20:15:05.759Z,8.30
2017-05-19T20:17:35.033Z,8.30
2017-05-19T20:20:04.235Z,8.30
2017-05-19T20:22:33.534Z,8.20
2017-05-19T20:25:02.771Z,8.20
2017-05-19T20:27:31.978Z,8.20
2017-05-19T20:30:01.248Z,8.20
2017-05-19T20:32:30.460Z,8.20
2017-05-19T20:34:59.779Z,8.30
2017-05-19T20:37:29.020Z,8.30
2017-05-19T20:39:58.225Z,8.30
2017-05-19T20:42:27.432Z,8.30
2017-05-19T20:44:56.687Z,8.20
2017-05-19T20:47:25.933Z,8.10
2017-05-19T20:49:55.172Z,8.10
2017-05-19T20:52:24.411Z,8.10
2017-05-19T20:54:53.672Z,8.00
2017-05-19T20:57:23.643Z,8.00
2017-05-19T20:59:52.867Z,8.00
2017-05-19T21:02:22.079Z,8.00
2017-05-19T21:04:51.380Z,8.10
2017-05-19T21:07:20.608Z,8.10
2017-05-19T21:09:49.920Z,8.00
2017-05-19T21:12:19.150Z,8.00
2017-05-19T21:14:48.364Z,8.00
2017-05-19T21:17:17.592Z,8.00
2017-05-19T21:19:46.808Z,7.90
2017-05-19T21:22:16.011Z,7.90
2017-05-19T21:24:45.318Z,7.80
2017-05-19T21:27:13.769Z,7.70
2017-05-19T21:29:42.235Z,7.80
2017-05-19T21:32:11.436Z,7.70
2017-05-19T21:34:40.659Z,7.70
2017-05-19T21:37:09.213Z,7.60
2017-05-19T21:39:38.435Z,7.60
2017-05-19T21:42:07.663Z,7.50
2017-05-19T21:44:36.927Z,7.50
2017-05-19T21:47:06.134Z,7.40
2017-05-19T21:49:35.453Z,7.30
2017-05-19T21:52:04.539Z,7.30
2017-05-19T21:54:33.780Z,7.20
2017-05-19T21:57:02.231Z,7.20
2017-05-19T21:59:31.323Z,7.10
2017-05-19T22:01:59.799Z,7.10
2017-05-19T22:04:29.023Z,7.10
2017-05-19T22:06:58.231Z,7.10
2017-05-19T22:09:27.435Z,7.20
2017-05-19T22:11:56.666Z,7.20
2017-05-19T22:14:25.897Z,7.10
2017-05-19T22:16:55.089Z,7.00
2017-05-19T22:19:23.548Z,7.00
2017-05-19T22:21:52.769Z,7.00
2017-05-19T22:24:21.989Z,7.00
2017-05-19T22:26:51.195Z,7.00
2017-05-19T22:29:19.646Z,6.90
2017-05-19T22:31:48.871Z,6.80
2017-05-19T22:34:18.092Z,6.70
2017-05-19T22:36:46.543Z,6.70
2017-05-19T22:39:15.875Z,6.70
2017-05-19T22:41:44.338Z,6.60
2017-05-19T22:44:13.601Z,6.80
2017-05-19T22:46:42.816Z,6.70
2017-05-19T22:49:11.249Z,6.60
2017-05-19T22:51:39.697Z,6.70
2017-05-19T22:54:08.920Z,6.60
2017-05-19T22:56:38.152Z,6.60
2017-05-19T22:59:07.367Z,6.60
2017-05-19T23:01:36.595Z,6.50
2017-05-19T23:04:05.801Z,6.50
2017-05-19T23:06:35.007Z,6.50
2017-05-19T23:09:03.595Z,6.50
2017-05-19T23:11:32.783Z,6.50
2017-05-19T23:14:02.027Z,6.40
2017-05-19T23:16:31.316Z,6.40
2017-05-19T23:19:00.527Z,6.40
2017-05-19T23:21:29.753Z,6.30
2017-05-19T23:23:58.977Z,6.30
2017-05-19T23:26:28.193Z,6.30
2017-05-19T23:28:57.403Z,6.30
2017-05-19T23:31:26.619Z,6.40
2017-05-19T23:33:55.879Z,6.30
2017-05-19T23:36:25.079Z,6.40
2017-05-19T23:38:54.297Z,6.40
2017-05-19T23:41:23.523Z,6.30
2017-05-19T23:43:52.739Z,6.30
2017-05-19T23:46:22.027Z,6.40
2017-05-19T23:48:51.235Z,6.40
2017-05-19T23:51:20.452Z,6.40
2017-05-19T23:53:50.600Z,6.40
2017-05-19T23:56:19.835Z,6.30
2017-05-19T23:58:49.052Z,6.40
